Bowden, Canada
Current Conditions -  °F | °C
As of 7:00 PM on Monday 20 Oct 2014 (Local Time) from CYQF Reporting Station
Broken Clouds Broken Clouds  
Wind Chill: 61°   Ceiling: 23000
Heat Index: 61°   Visibility: 15mi
Dew Point: 34°   Wind: 7mph
Humidity: 36%   Direction: 190°S
Pressure: 29.54"   Gusts: NA
Location:  51.92°N, 114.03°W
Report Text: CYQF 210100Z 19006KT 15SM FEW070 BKN230 16/01 A2954 RMK AC1CI4 SLP021 DENSITY ALT 4100FT
Loading
Personal Weather Stations






























Interactive Weather Map
Tropical Storm Tracking
New forecast layout! Learn more

10-Day Weather Forecast

Advertisements
Track Severe Weather on mobile